sensor_id;sensor_type;location;lat;lon;timestamp;P1;durP1;ratioP1;P2;durP2;ratioP2
62535;SDS011;63050;47.514;18.920;2022-12-18T00:03:53;32.00;;;17.90;;
62535;SDS011;63050;47.514;18.920;2022-12-18T00:08:56;29.70;;;14.30;;
62535;SDS011;63050;47.514;18.920;2022-12-18T00:13:58;35.00;;;18.80;;
62535;SDS011;63050;47.514;18.920;2022-12-18T00:19:00;31.00;;;16.20;;
62535;SDS011;63050;47.514;18.920;2022-12-18T00:24:01;28.00;;;14.10;;
62535;SDS011;63050;47.514;18.920;2022-12-18T00:29:12;37.80;;;17.60;;
62535;SDS011;63050;47.514;18.920;2022-12-18T00:34:14;32.20;;;15.80;;
62535;SDS011;63050;47.514;18.920;2022-12-18T00:39:15;29.50;;;14.40;;
62535;SDS011;63050;47.514;18.920;2022-12-18T00:44:18;27.30;;;13.90;;
62535;SDS011;63050;47.514;18.920;2022-12-18T00:49:20;30.20;;;15.70;;
62535;SDS011;63050;47.514;18.920;2022-12-18T00:54:21;31.20;;;16.40;;
62535;SDS011;63050;47.514;18.920;2022-12-18T00:59:21;34.10;;;14.70;;
62535;SDS011;63050;47.514;18.920;2022-12-18T01:04:24;33.00;;;16.00;;
62535;SDS011;63050;47.514;18.920;2022-12-18T01:09:25;29.40;;;15.50;;
62535;SDS011;63050;47.514;18.920;2022-12-18T01:14:26;34.30;;;16.60;;
62535;SDS011;63050;47.514;18.920;2022-12-18T01:19:27;29.90;;;16.20;;
62535;SDS011;63050;47.514;18.920;2022-12-18T01:24:28;35.70;;;15.80;;
62535;SDS011;63050;47.514;18.920;2022-12-18T01:29:29;31.40;;;16.60;;
62535;SDS011;63050;47.514;18.920;2022-12-18T01:34:30;24.70;;;14.20;;
62535;SDS011;63050;47.514;18.920;2022-12-18T01:39:31;28.90;;;14.30;;
62535;SDS011;63050;47.514;18.920;2022-12-18T01:50:15;33.60;;;15.80;;
62535;SDS011;63050;47.514;18.920;2022-12-18T01:55:23;35.50;;;16.20;;
62535;SDS011;63050;47.514;18.920;2022-12-18T02:00:26;37.90;;;16.10;;
62535;SDS011;63050;47.514;18.920;2022-12-18T02:05:47;38.10;;;17.80;;
62535;SDS011;63050;47.514;18.920;2022-12-18T02:10:56;31.10;;;16.50;;
62535;SDS011;63050;47.514;18.920;2022-12-18T02:31:26;29.50;;;15.00;;
62535;SDS011;63050;47.514;18.920;2022-12-18T02:36:32;29.10;;;13.00;;
62535;SDS011;63050;47.514;18.920;2022-12-18T02:41:34;28.00;;;14.00;;
62535;SDS011;63050;47.514;18.920;2022-12-18T02:46:39;26.80;;;13.60;;
62535;SDS011;63050;47.514;18.920;2022-12-18T02:57:11;18.10;;;8.30;;
62535;SDS011;63050;47.514;18.920;2022-12-18T03:02:29;21.40;;;10.10;;
62535;SDS011;63050;47.514;18.920;2022-12-18T03:07:38;21.90;;;10.20;;
62535;SDS011;63050;47.514;18.920;2022-12-18T03:12:45;16.60;;;7.40;;
62535;SDS011;63050;47.514;18.920;2022-12-18T03:17:57;17.90;;;8.70;;
62535;SDS011;63050;47.514;18.920;2022-12-18T03:23:10;20.60;;;8.20;;
62535;SDS011;63050;47.514;18.920;2022-12-18T03:28:14;16.30;;;7.20;;
62535;SDS011;63050;47.514;18.920;2022-12-18T03:33:24;21.00;;;9.60;;
62535;SDS011;63050;47.514;18.920;2022-12-18T03:38:28;20.90;;;9.40;;
62535;SDS011;63050;47.514;18.920;2022-12-18T03:43:39;13.40;;;7.40;;
62535;SDS011;63050;47.514;18.920;2022-12-18T03:48:44;28.10;;;11.10;;
62535;SDS011;63050;47.514;18.920;2022-12-18T03:53:53;22.70;;;10.30;;
62535;SDS011;63050;47.514;18.920;2022-12-18T03:59:03;22.40;;;11.20;;
62535;SDS011;63050;47.514;18.920;2022-12-18T04:04:06;20.60;;;10.40;;
62535;SDS011;63050;47.514;18.920;2022-12-18T04:09:10;19.80;;;9.10;;
62535;SDS011;63050;47.514;18.920;2022-12-18T04:14:13;21.50;;;8.80;;
62535;SDS011;63050;47.514;18.920;2022-12-18T04:19:15;22.50;;;10.30;;
62535;SDS011;63050;47.514;18.920;2022-12-18T04:24:17;21.00;;;8.90;;
62535;SDS011;63050;47.514;18.920;2022-12-18T04:29:26;20.00;;;8.90;;
62535;SDS011;63050;47.514;18.920;2022-12-18T04:34:27;22.50;;;9.70;;
62535;SDS011;63050;47.514;18.920;2022-12-18T04:39:28;23.80;;;9.80;;
62535;SDS011;63050;47.514;18.920;2022-12-18T04:44:32;17.50;;;5.90;;
62535;SDS011;63050;47.514;18.920;2022-12-18T04:49:33;7.90;;;3.70;;
62535;SDS011;63050;47.514;18.920;2022-12-18T04:54:34;17.00;;;8.80;;
62535;SDS011;63050;47.514;18.920;2022-12-18T04:59:35;15.60;;;6.70;;
62535;SDS011;63050;47.514;18.920;2022-12-18T05:04:36;14.20;;;7.70;;
62535;SDS011;63050;47.514;18.920;2022-12-18T05:09:37;18.40;;;8.20;;
62535;SDS011;63050;47.514;18.920;2022-12-18T05:14:38;20.40;;;7.20;;
62535;SDS011;63050;47.514;18.920;2022-12-18T05:19:39;18.20;;;7.70;;
62535;SDS011;63050;47.514;18.920;2022-12-18T05:24:40;12.60;;;6.60;;
62535;SDS011;63050;47.514;18.920;2022-12-18T05:29:41;17.40;;;8.30;;
62535;SDS011;63050;47.514;18.920;2022-12-18T05:34:42;18.90;;;7.00;;
62535;SDS011;63050;47.514;18.920;2022-12-18T05:39:43;21.70;;;7.50;;
62535;SDS011;63050;47.514;18.920;2022-12-18T05:44:44;14.60;;;7.20;;
62535;SDS011;63050;47.514;18.920;2022-12-18T05:49:45;13.30;;;6.80;;
62535;SDS011;63050;47.514;18.920;2022-12-18T05:54:46;17.40;;;8.80;;
62535;SDS011;63050;47.514;18.920;2022-12-18T05:59:47;12.50;;;6.70;;
62535;SDS011;63050;47.514;18.920;2022-12-18T06:04:48;13.40;;;6.30;;
62535;SDS011;63050;47.514;18.920;2022-12-18T06:09:49;17.80;;;6.50;;
62535;SDS011;63050;47.514;18.920;2022-12-18T06:14:49;14.60;;;7.80;;
62535;SDS011;63050;47.514;18.920;2022-12-18T06:19:50;14.00;;;6.60;;
62535;SDS011;63050;47.514;18.920;2022-12-18T06:24:51;17.30;;;7.30;;
62535;SDS011;63050;47.514;18.920;2022-12-18T06:29:52;19.30;;;5.70;;
62535;SDS011;63050;47.514;18.920;2022-12-18T06:34:53;16.20;;;7.80;;
62535;SDS011;63050;47.514;18.920;2022-12-18T06:39:55;11.90;;;6.50;;
62535;SDS011;63050;47.514;18.920;2022-12-18T06:44:56;12.40;;;5.50;;
62535;SDS011;63050;47.514;18.920;2022-12-18T06:49:57;13.20;;;6.50;;
62535;SDS011;63050;47.514;18.920;2022-12-18T06:54:58;14.30;;;6.10;;
62535;SDS011;63050;47.514;18.920;2022-12-18T06:59:59;14.80;;;6.50;;
62535;SDS011;63050;47.514;18.920;2022-12-18T07:05:00;14.70;;;6.80;;
62535;SDS011;63050;47.514;18.920;2022-12-18T07:10:01;19.30;;;7.10;;
62535;SDS011;63050;47.514;18.920;2022-12-18T07:15:03;12.50;;;5.70;;
62535;SDS011;63050;47.514;18.920;2022-12-18T07:20:04;10.80;;;5.80;;
62535;SDS011;63050;47.514;18.920;2022-12-18T07:25:05;12.40;;;6.00;;
62535;SDS011;63050;47.514;18.920;2022-12-18T07:30:07;12.20;;;6.10;;
62535;SDS011;63050;47.514;18.920;2022-12-18T07:35:09;15.80;;;8.20;;
62535;SDS011;63050;47.514;18.920;2022-12-18T07:40:10;16.70;;;8.60;;
62535;SDS011;63050;47.514;18.920;2022-12-18T07:45:11;18.50;;;8.80;;
62535;SDS011;63050;47.514;18.920;2022-12-18T07:50:12;19.20;;;10.20;;
62535;SDS011;63050;47.514;18.920;2022-12-18T07:55:13;27.10;;;14.70;;
62535;SDS011;63050;47.514;18.920;2022-12-18T08:00:14;25.00;;;12.80;;
62535;SDS011;63050;47.514;18.920;2022-12-18T08:05:15;28.00;;;13.00;;
62535;SDS011;63050;47.514;18.920;2022-12-18T08:10:16;24.20;;;12.40;;
62535;SDS011;63050;47.514;18.920;2022-12-18T08:15:17;31.00;;;14.50;;
62535;SDS011;63050;47.514;18.920;2022-12-18T08:20:18;32.10;;;15.80;;
62535;SDS011;63050;47.514;18.920;2022-12-18T08:25:19;33.90;;;16.30;;
62535;SDS011;63050;47.514;18.920;2022-12-18T08:30:20;33.50;;;18.00;;
62535;SDS011;63050;47.514;18.920;2022-12-18T08:35:22;35.60;;;17.60;;
62535;SDS011;63050;47.514;18.920;2022-12-18T08:40:22;34.20;;;19.00;;
62535;SDS011;63050;47.514;18.920;2022-12-18T08:45:23;41.80;;;21.80;;
62535;SDS011;63050;47.514;18.920;2022-12-18T08:50:25;28.50;;;13.40;;
62535;SDS011;63050;47.514;18.920;2022-12-18T08:55:26;26.30;;;12.60;;
62535;SDS011;63050;47.514;18.920;2022-12-18T09:00:27;27.90;;;12.80;;
62535;SDS011;63050;47.514;18.920;2022-12-18T09:05:27;29.80;;;14.00;;
62535;SDS011;63050;47.514;18.920;2022-12-18T09:10:28;29.70;;;14.70;;
62535;SDS011;63050;47.514;18.920;2022-12-18T09:15:29;25.60;;;14.70;;
62535;SDS011;63050;47.514;18.920;2022-12-18T09:20:30;32.00;;;16.90;;
62535;SDS011;63050;47.514;18.920;2022-12-18T09:25:31;35.10;;;17.60;;
62535;SDS011;63050;47.514;18.920;2022-12-18T09:30:33;29.70;;;15.20;;
62535;SDS011;63050;47.514;18.920;2022-12-18T09:35:37;27.80;;;14.10;;
62535;SDS011;63050;47.514;18.920;2022-12-18T09:40:43;30.30;;;15.70;;
62535;SDS011;63050;47.514;18.920;2022-12-18T09:45:47;27.80;;;14.60;;
62535;SDS011;63050;47.514;18.920;2022-12-18T09:50:50;30.60;;;15.70;;
62535;SDS011;63050;47.514;18.920;2022-12-18T09:55:52;31.70;;;15.60;;
62535;SDS011;63050;47.514;18.920;2022-12-18T10:00:55;31.70;;;16.30;;
62535;SDS011;63050;47.514;18.920;2022-12-18T10:11:24;29.80;;;16.30;;
62535;SDS011;63050;47.514;18.920;2022-12-18T10:27:33;30.90;;;17.10;;
62535;SDS011;63050;47.514;18.920;2022-12-18T10:32:35;33.30;;;18.70;;
62535;SDS011;63050;47.514;18.920;2022-12-18T10:37:36;29.40;;;16.10;;
62535;SDS011;63050;47.514;18.920;2022-12-18T10:42:37;31.60;;;16.50;;
62535;SDS011;63050;47.514;18.920;2022-12-18T10:47:48;33.60;;;18.30;;
62535;SDS011;63050;47.514;18.920;2022-12-18T10:52:54;33.30;;;18.00;;
62535;SDS011;63050;47.514;18.920;2022-12-18T10:57:56;33.00;;;16.80;;
62535;SDS011;63050;47.514;18.920;2022-12-18T11:03:35;35.20;;;18.10;;
62535;SDS011;63050;47.514;18.920;2022-12-18T11:08:56;35.10;;;18.90;;
62535;SDS011;63050;47.514;18.920;2022-12-18T11:14:05;30.80;;;16.60;;
62535;SDS011;63050;47.514;18.920;2022-12-18T11:24:34;29.00;;;15.70;;
62535;SDS011;63050;47.514;18.920;2022-12-18T11:29:36;25.90;;;15.60;;
62535;SDS011;63050;47.514;18.920;2022-12-18T11:34:39;27.80;;;16.00;;
62535;SDS011;63050;47.514;18.920;2022-12-18T11:39:47;26.20;;;15.10;;
62535;SDS011;63050;47.514;18.920;2022-12-18T11:44:52;27.80;;;14.80;;
62535;SDS011;63050;47.514;18.920;2022-12-18T11:49:58;28.90;;;16.30;;
62535;SDS011;63050;47.514;18.920;2022-12-18T11:55:04;27.20;;;14.60;;
62535;SDS011;63050;47.514;18.920;2022-12-18T12:00:20;29.80;;;15.70;;
62535;SDS011;63050;47.514;18.920;2022-12-18T12:05:28;27.50;;;14.40;;
62535;SDS011;63050;47.514;18.920;2022-12-18T12:11:03;23.10;;;13.30;;
62535;SDS011;63050;47.514;18.920;2022-12-18T12:16:24;25.10;;;14.00;;
62535;SDS011;63050;47.514;18.920;2022-12-18T12:21:40;18.50;;;11.70;;
62535;SDS011;63050;47.514;18.920;2022-12-18T12:47:56;15.10;;;9.20;;
62535;SDS011;63050;47.514;18.920;2022-12-18T12:52:58;13.40;;;7.60;;
62535;SDS011;63050;47.514;18.920;2022-12-18T12:58:05;18.00;;;9.80;;
62535;SDS011;63050;47.514;18.920;2022-12-18T13:03:13;19.20;;;11.50;;
62535;SDS011;63050;47.514;18.920;2022-12-18T13:24:38;24.00;;;14.00;;
62535;SDS011;63050;47.514;18.920;2022-12-18T13:29:45;23.10;;;12.60;;
62535;SDS011;63050;47.514;18.920;2022-12-18T13:34:46;27.90;;;14.50;;
62535;SDS011;63050;47.514;18.920;2022-12-18T13:39:48;23.30;;;14.10;;
62535;SDS011;63050;47.514;18.920;2022-12-18T13:44:51;24.70;;;14.20;;
62535;SDS011;63050;47.514;18.920;2022-12-18T13:49:52;22.90;;;13.40;;
62535;SDS011;63050;47.514;18.920;2022-12-18T13:54:54;21.60;;;14.00;;
62535;SDS011;63050;47.514;18.920;2022-12-18T13:59:57;24.40;;;14.80;;
62535;SDS011;63050;47.514;18.920;2022-12-18T14:04:58;24.10;;;14.20;;
62535;SDS011;63050;47.514;18.920;2022-12-18T14:10:00;27.60;;;14.80;;
62535;SDS011;63050;47.514;18.920;2022-12-18T14:15:02;25.30;;;14.30;;
62535;SDS011;63050;47.514;18.920;2022-12-18T14:20:04;26.00;;;14.00;;
62535;SDS011;63050;47.514;18.920;2022-12-18T14:25:16;28.20;;;14.00;;
62535;SDS011;63050;47.514;18.920;2022-12-18T14:35:25;27.20;;;15.30;;
62535;SDS011;63050;47.514;18.920;2022-12-18T14:40:26;24.90;;;14.10;;
62535;SDS011;63050;47.514;18.920;2022-12-18T14:56:03;24.20;;;15.70;;
62535;SDS011;63050;47.514;18.920;2022-12-18T15:02:01;24.60;;;15.00;;
62535;SDS011;63050;47.514;18.920;2022-12-18T15:07:18;25.60;;;15.60;;
62535;SDS011;63050;47.514;18.920;2022-12-18T15:12:32;29.70;;;16.80;;
62535;SDS011;63050;47.514;18.920;2022-12-18T15:17:35;27.90;;;16.90;;
62535;SDS011;63050;47.514;18.920;2022-12-18T15:22:38;28.70;;;16.00;;
62535;SDS011;63050;47.514;18.920;2022-12-18T15:27:40;26.10;;;15.00;;
62535;SDS011;63050;47.514;18.920;2022-12-18T15:32:48;26.00;;;14.90;;
62535;SDS011;63050;47.514;18.920;2022-12-18T15:37:53;26.40;;;15.50;;
62535;SDS011;63050;47.514;18.920;2022-12-18T15:42:54;29.60;;;15.60;;
62535;SDS011;63050;47.514;18.920;2022-12-18T15:48:18;27.10;;;14.50;;
62535;SDS011;63050;47.514;18.920;2022-12-18T15:53:27;31.50;;;16.70;;
62535;SDS011;63050;47.514;18.920;2022-12-18T15:58:31;25.70;;;15.00;;
62535;SDS011;63050;47.514;18.920;2022-12-18T16:03:34;22.70;;;13.90;;
62535;SDS011;63050;47.514;18.920;2022-12-18T16:08:36;27.40;;;15.40;;
62535;SDS011;63050;47.514;18.920;2022-12-18T16:13:39;25.40;;;15.90;;
62535;SDS011;63050;47.514;18.920;2022-12-18T16:18:40;30.60;;;17.60;;
62535;SDS011;63050;47.514;18.920;2022-12-18T16:23:42;27.00;;;16.30;;
62535;SDS011;63050;47.514;18.920;2022-12-18T16:28:44;27.80;;;17.50;;
62535;SDS011;63050;47.514;18.920;2022-12-18T16:33:46;31.20;;;17.90;;
62535;SDS011;63050;47.514;18.920;2022-12-18T16:38:48;27.30;;;15.70;;
62535;SDS011;63050;47.514;18.920;2022-12-18T16:43:52;27.90;;;17.10;;
62535;SDS011;63050;47.514;18.920;2022-12-18T16:48:56;32.30;;;17.30;;
62535;SDS011;63050;47.514;18.920;2022-12-18T16:53:59;32.00;;;17.70;;
62535;SDS011;63050;47.514;18.920;2022-12-18T16:59:02;31.50;;;16.70;;
62535;SDS011;63050;47.514;18.920;2022-12-18T17:04:04;28.40;;;15.70;;
62535;SDS011;63050;47.514;18.920;2022-12-18T17:09:07;24.40;;;14.50;;
62535;SDS011;63050;47.514;18.920;2022-12-18T17:14:15;27.80;;;16.40;;
62535;SDS011;63050;47.514;18.920;2022-12-18T17:19:18;35.90;;;17.70;;
62535;SDS011;63050;47.514;18.920;2022-12-18T17:24:20;28.80;;;16.30;;
62535;SDS011;63050;47.514;18.920;2022-12-18T17:29:24;33.60;;;16.60;;
62535;SDS011;63050;47.514;18.920;2022-12-18T17:34:27;31.60;;;16.50;;
62535;SDS011;63050;47.514;18.920;2022-12-18T17:39:29;26.20;;;13.50;;
62535;SDS011;63050;47.514;18.920;2022-12-18T17:44:31;30.50;;;15.60;;
62535;SDS011;63050;47.514;18.920;2022-12-18T17:49:34;37.70;;;16.90;;
62535;SDS011;63050;47.514;18.920;2022-12-18T17:54:35;31.20;;;16.30;;
62535;SDS011;63050;47.514;18.920;2022-12-18T17:59:42;39.10;;;18.30;;
62535;SDS011;63050;47.514;18.920;2022-12-18T18:04:44;34.50;;;16.30;;
62535;SDS011;63050;47.514;18.920;2022-12-18T18:09:45;32.80;;;16.20;;
62535;SDS011;63050;47.514;18.920;2022-12-18T18:14:47;33.00;;;17.30;;
62535;SDS011;63050;47.514;18.920;2022-12-18T18:19:48;41.20;;;19.10;;
62535;SDS011;63050;47.514;18.920;2022-12-18T18:24:50;32.30;;;16.50;;
62535;SDS011;63050;47.514;18.920;2022-12-18T18:29:51;32.40;;;14.50;;
62535;SDS011;63050;47.514;18.920;2022-12-18T18:34:52;31.90;;;15.30;;
62535;SDS011;63050;47.514;18.920;2022-12-18T18:39:54;33.20;;;15.50;;
62535;SDS011;63050;47.514;18.920;2022-12-18T18:44:57;41.60;;;19.70;;
62535;SDS011;63050;47.514;18.920;2022-12-18T18:49:58;31.40;;;17.40;;
62535;SDS011;63050;47.514;18.920;2022-12-18T18:55:00;28.70;;;14.80;;
62535;SDS011;63050;47.514;18.920;2022-12-18T19:00:02;32.50;;;16.50;;
62535;SDS011;63050;47.514;18.920;2022-12-18T19:05:04;38.20;;;16.60;;
62535;SDS011;63050;47.514;18.920;2022-12-18T19:10:08;40.40;;;16.70;;
62535;SDS011;63050;47.514;18.920;2022-12-18T19:15:09;39.80;;;17.20;;
62535;SDS011;63050;47.514;18.920;2022-12-18T19:20:11;31.70;;;15.80;;
62535;SDS011;63050;47.514;18.920;2022-12-18T19:25:15;33.30;;;16.70;;
62535;SDS011;63050;47.514;18.920;2022-12-18T19:30:16;35.80;;;15.70;;
62535;SDS011;63050;47.514;18.920;2022-12-18T19:35:21;27.70;;;12.30;;
62535;SDS011;63050;47.514;18.920;2022-12-18T19:40:22;27.60;;;11.50;;
62535;SDS011;63050;47.514;18.920;2022-12-18T19:45:24;32.20;;;14.50;;
62535;SDS011;63050;47.514;18.920;2022-12-18T19:50:26;30.80;;;13.10;;
62535;SDS011;63050;47.514;18.920;2022-12-18T19:55:27;23.00;;;11.00;;
62535;SDS011;63050;47.514;18.920;2022-12-18T20:00:29;22.70;;;11.20;;
62535;SDS011;63050;47.514;18.920;2022-12-18T20:05:30;24.00;;;12.30;;
62535;SDS011;63050;47.514;18.920;2022-12-18T20:10:31;31.60;;;14.20;;
62535;SDS011;63050;47.514;18.920;2022-12-18T20:15:33;27.60;;;13.40;;
62535;SDS011;63050;47.514;18.920;2022-12-18T20:20:34;31.70;;;14.50;;
62535;SDS011;63050;47.514;18.920;2022-12-18T20:25:36;27.80;;;13.50;;
62535;SDS011;63050;47.514;18.920;2022-12-18T20:30:38;26.60;;;12.00;;
62535;SDS011;63050;47.514;18.920;2022-12-18T20:35:41;24.60;;;11.80;;
62535;SDS011;63050;47.514;18.920;2022-12-18T20:40:42;25.40;;;12.00;;
62535;SDS011;63050;47.514;18.920;2022-12-18T20:45:44;35.10;;;14.20;;
62535;SDS011;63050;47.514;18.920;2022-12-18T20:50:55;26.70;;;13.20;;
62535;SDS011;63050;47.514;18.920;2022-12-18T20:56:04;33.70;;;15.20;;
62535;SDS011;63050;47.514;18.920;2022-12-18T21:01:09;27.90;;;14.30;;
62535;SDS011;63050;47.514;18.920;2022-12-18T21:06:12;37.60;;;15.30;;
62535;SDS011;63050;47.514;18.920;2022-12-18T21:16:38;29.60;;;14.50;;
62535;SDS011;63050;47.514;18.920;2022-12-18T21:21:45;26.40;;;13.50;;
62535;SDS011;63050;47.514;18.920;2022-12-18T21:26:47;30.50;;;13.70;;
62535;SDS011;63050;47.514;18.920;2022-12-18T21:31:49;31.40;;;14.30;;
62535;SDS011;63050;47.514;18.920;2022-12-18T21:36:50;21.90;;;11.30;;
62535;SDS011;63050;47.514;18.920;2022-12-18T21:41:52;27.00;;;11.80;;
62535;SDS011;63050;47.514;18.920;2022-12-18T21:47:12;26.70;;;11.90;;
62535;SDS011;63050;47.514;18.920;2022-12-18T21:52:13;31.40;;;11.50;;
62535;SDS011;63050;47.514;18.920;2022-12-18T21:57:14;23.80;;;11.30;;
62535;SDS011;63050;47.514;18.920;2022-12-18T22:02:16;24.80;;;11.70;;
62535;SDS011;63050;47.514;18.920;2022-12-18T22:07:18;25.90;;;11.00;;
62535;SDS011;63050;47.514;18.920;2022-12-18T22:12:19;25.00;;;11.30;;
62535;SDS011;63050;47.514;18.920;2022-12-18T22:17:34;19.20;;;9.70;;
62535;SDS011;63050;47.514;18.920;2022-12-18T22:22:35;24.10;;;11.20;;
62535;SDS011;63050;47.514;18.920;2022-12-18T22:27:36;26.80;;;12.60;;
62535;SDS011;63050;47.514;18.920;2022-12-18T22:32:37;27.00;;;11.90;;
62535;SDS011;63050;47.514;18.920;2022-12-18T22:37:38;28.60;;;12.00;;
62535;SDS011;63050;47.514;18.920;2022-12-18T22:42:40;26.40;;;12.50;;
62535;SDS011;63050;47.514;18.920;2022-12-18T22:47:40;26.90;;;13.10;;
62535;SDS011;63050;47.514;18.920;2022-12-18T22:52:42;23.00;;;10.60;;
62535;SDS011;63050;47.514;18.920;2022-12-18T22:57:42;24.00;;;13.20;;
62535;SDS011;63050;47.514;18.920;2022-12-18T23:02:43;24.50;;;12.20;;
62535;SDS011;63050;47.514;18.920;2022-12-18T23:07:44;30.00;;;14.30;;
62535;SDS011;63050;47.514;18.920;2022-12-18T23:12:45;33.30;;;13.10;;
62535;SDS011;63050;47.514;18.920;2022-12-18T23:17:46;27.60;;;13.20;;
62535;SDS011;63050;47.514;18.920;2022-12-18T23:22:48;25.00;;;12.80;;
62535;SDS011;63050;47.514;18.920;2022-12-18T23:27:49;28.10;;;14.00;;
62535;SDS011;63050;47.514;18.920;2022-12-18T23:32:50;26.50;;;13.50;;
62535;SDS011;63050;47.514;18.920;2022-12-18T23:37:51;35.10;;;15.00;;
62535;SDS011;63050;47.514;18.920;2022-12-18T23:42:52;30.60;;;12.50;;
62535;SDS011;63050;47.514;18.920;2022-12-18T23:47:53;29.60;;;13.00;;
62535;SDS011;63050;47.514;18.920;2022-12-18T23:52:54;29.00;;;13.40;;
62535;SDS011;63050;47.514;18.920;2022-12-18T23:57:56;26.30;;;12.50;;
